Time;durP1;ratioP1;P1;durP2;ratioP2;P2;SDS_P1;SDS_P2;PMS_P1;PMS_P2;Temp;Humidity;BMP_temperature;BMP_pressure;BME280_temperature;BME280_humidity;BME280_pressure;Samples;Min_cycle;Max_cycle;Signal;HPM_P1;HPM_P2
2023/04/13 00:00:07;;;;;;;0.60;0.50;;;;;;;25.02;35.26;98548.88;1854157;76;28091;-39
2023/04/13 00:02:52;;;;;;;0.33;0.33;;;;;;;25.01;35.28;98558.21;1875363;75;28152;-39
2023/04/13 00:05:41;;;;;;;0.33;0.33;;;;;;;25.01;35.25;98552.72;1872579;75;28314;-39
2023/04/13 00:08:30;;;;;;;0.40;0.40;;;;;;;24.99;35.31;98556.29;1866826;75;28107;-39
2023/04/13 00:11:19;;;;;;;0.70;0.47;;;;;;;24.98;35.29;98555.45;1864685;75;28107;-40
2023/04/13 00:14:07;;;;;;;0.30;0.30;;;;;;;24.98;35.32;98557.38;1863619;76;28068;-41
2023/04/13 00:16:56;;;;;;;0.40;0.35;;;;;;;24.99;35.26;98553.55;1870648;76;28049;-39
2023/04/13 00:19:46;;;;;;;0.30;0.30;;;;;;;24.98;35.29;98545.84;1888145;74;28202;-39
2023/04/13 00:22:34;;;;;;;0.30;0.30;;;;;;;24.99;35.27;98549.42;1865688;75;28237;-40
2023/04/13 00:25:23;;;;;;;0.62;0.53;;;;;;;24.98;35.28;98556.83;1887067;75;28185;-40
2023/04/13 00:28:11;;;;;;;0.35;0.35;;;;;;;24.97;35.29;98553.80;1861582;75;28195;-39
2023/04/13 00:31:00;;;;;;;0.33;0.30;;;;;;;24.97;35.28;98544.17;1858185;75;28109;-39
2023/04/13 00:33:49;;;;;;;0.30;0.30;;;;;;;24.96;35.29;98544.46;1878421;75;28064;-40
2023/04/13 00:36:37;;;;;;;0.40;0.40;;;;;;;24.97;35.30;98548.88;1885407;75;28265;-39
2023/04/13 00:39:29;;;;;;;0.30;0.30;;;;;;;24.98;35.30;98553.25;1885905;75;28089;-39
2023/04/13 00:42:18;;;;;;;0.35;0.30;;;;;;;24.97;35.26;98549.67;1885648;75;28122;-39
2023/04/13 00:45:09;;;;;;;0.40;0.40;;;;;;;24.97;35.21;98548.30;1875428;75;32093;-41
2023/04/13 00:47:57;;;;;;;0.20;0.20;;;;;;;24.95;35.28;98547.75;1882877;75;28133;-40
2023/04/13 00:50:47;;;;;;;0.20;0.20;;;;;;;24.95;35.28;98542.25;1867131;75;28102;-39
2023/04/13 00:53:35;;;;;;;0.30;0.30;;;;;;;24.97;35.25;98541.42;1886294;75;38448;-40
2023/04/13 00:56:26;;;;;;;0.30;0.30;;;;;;;24.97;35.25;98522.20;1876833;75;28114;-39
2023/04/13 00:59:16;;;;;;;0.40;0.40;;;;;;;24.96;35.25;98523.85;1893451;75;28060;-40
2023/04/13 01:02:06;;;;;;;0.30;0.30;;;;;;;24.95;35.27;98527.72;1876125;75;28156;-40
2023/04/13 01:04:56;;;;;;;0.20;0.20;;;;;;;24.94;35.29;98520.56;1886954;75;28155;-40
2023/04/13 01:08:07;;;;;;;0.20;0.20;;;;;;;24.93;35.33;98521.64;1877627;75;28237;-39
2023/04/13 01:11:08;;;;;;;0.30;0.30;;;;;;;24.94;35.32;98520.02;1815492;75;28012;-39
2023/04/13 01:14:09;;;;;;;1.30;0.30;;;;;;;24.91;35.33;98515.06;1881506;75;28071;-40
2023/04/13 01:17:02;;;;;;;0.30;0.30;;;;;;;24.89;35.33;98511.77;1878948;75;28188;-40
2023/04/13 01:19:56;;;;;;;0.45;0.28;;;;;;;24.91;35.41;98521.09;1884017;75;28040;-39
2023/04/13 01:22:49;;;;;;;0.30;0.30;;;;;;;24.90;35.44;98507.10;1870348;75;28202;-40
2023/04/13 01:25:59;;;;;;;0.35;0.35;;;;;;;24.90;35.37;98519.47;1878267;75;28189;-40
2023/04/13 01:28:50;;;;;;;0.30;0.30;;;;;;;24.89;35.39;98550.23;1888402;75;28090;-41
2023/04/13 01:31:38;;;;;;;0.30;0.30;;;;;;;24.88;35.47;98549.14;1889429;75;38467;-39
2023/04/13 01:34:28;;;;;;;0.70;0.30;;;;;;;24.88;35.48;98553.26;1869186;75;28150;-40
2023/04/13 01:37:17;;;;;;;0.20;0.20;;;;;;;24.87;35.45;98546.93;1861624;75;28289;-39
2023/04/13 01:40:14;;;;;;;0.20;0.20;;;;;;;24.89;35.43;98554.34;1865934;75;28201;-39
2023/04/13 01:43:01;;;;;;;0.20;0.20;;;;;;;24.88;35.55;98559.55;1882207;75;28145;-39
2023/04/13 01:46:03;;;;;;;0.55;0.45;;;;;;;24.88;35.58;98554.06;1880899;75;28522;-40
2023/04/13 01:48:56;;;;;;;0.28;0.28;;;;;;;24.88;35.62;98556.80;1885718;75;28111;-40
2023/04/13 01:52:02;;;;;;;0.20;0.20;;;;;;;24.87;35.59;98557.09;1876079;75;28136;-40
2023/04/13 01:54:55;;;;;;;0.20;0.20;;;;;;;24.87;35.68;98554.34;1877476;75;28050;-40
2023/04/13 01:57:46;;;;;;;0.40;0.20;;;;;;;24.88;35.61;98553.26;1873203;75;28119;-40
2023/04/13 02:00:37;;;;;;;0.40;0.40;;;;;;;24.88;35.60;98540.33;1866415;75;28107;-40
2023/04/13 02:03:29;;;;;;;0.30;0.30;;;;;;;24.89;35.62;98535.66;1878586;75;28181;-40
2023/04/13 02:06:18;;;;;;;0.20;0.20;;;;;;;24.88;35.63;98534.03;1887886;75;28150;-40
2023/04/13 02:09:07;;;;;;;0.20;0.20;;;;;;;24.89;35.59;98537.03;1885006;75;28091;-40
2023/04/13 02:11:55;;;;;;;0.40;0.27;;;;;;;24.90;35.60;98542.24;1882262;75;28130;-39
2023/04/13 02:14:43;;;;;;;0.17;0.17;;;;;;;24.89;35.58;98534.28;1876192;75;28060;-40
2023/04/13 02:17:32;;;;;;;0.88;0.20;;;;;;;24.87;35.61;98531.82;1882545;75;28132;-39
2023/04/13 02:20:22;;;;;;;0.20;0.20;;;;;;;24.89;35.50;98527.42;1864299;75;28052;-39
2023/04/13 02:23:16;;;;;;;0.20;0.20;;;;;;;24.87;35.54;98530.45;1898333;75;28141;-40
2023/04/13 02:26:07;;;;;;;0.20;0.20;;;;;;;24.87;35.56;98526.33;1888367;75;28148;-40
2023/04/13 02:28:55;;;;;;;0.25;0.25;;;;;;;24.85;35.59;98524.95;1894776;75;28295;-40
2023/04/13 02:31:45;;;;;;;0.28;0.28;;;;;;;24.88;35.48;98535.40;1885516;74;28110;-39
2023/04/13 02:34:34;;;;;;;0.17;0.17;;;;;;;24.87;35.50;98533.20;1891718;74;28151;-40
2023/04/13 02:37:23;;;;;;;0.10;0.10;;;;;;;24.85;35.53;98534.56;1898460;74;28146;-39
2023/04/13 02:40:12;;;;;;;0.20;0.20;;;;;;;24.84;35.61;98532.36;1889814;74;28126;-40
2023/04/13 02:43:01;;;;;;;0.40;0.20;;;;;;;24.85;35.62;98536.77;1873142;75;28103;-39
2023/04/13 02:45:51;;;;;;;0.20;0.20;;;;;;;24.86;35.53;98541.69;1842919;75;28252;-40
2023/04/13 02:48:40;;;;;;;0.20;0.20;;;;;;;24.86;35.49;98538.40;1878912;75;28091;-39
2023/04/13 02:51:29;;;;;;;0.33;0.33;;;;;;;24.84;35.53;98540.59;1864127;75;28341;-40
2023/04/13 02:54:18;;;;;;;0.28;0.28;;;;;;;24.84;35.54;98545.27;1897746;74;28154;-40
2023/04/13 02:57:09;;;;;;;0.20;0.20;;;;;;;24.83;35.50;98536.77;1867499;75;28505;-39
2023/04/13 02:59:58;;;;;;;0.72;0.20;;;;;;;24.84;35.50;98537.02;1862375;75;28148;-40
2023/04/13 03:02:49;;;;;;;0.53;0.53;;;;;;;24.82;35.48;98535.93;1856378;75;28307;-39
2023/04/13 03:05:39;;;;;;;0.10;0.10;;;;;;;24.85;35.50;98541.43;1872119;75;28210;-39
2023/04/13 03:08:28;;;;;;;0.10;0.10;;;;;;;24.83;35.55;98539.51;1886920;74;28099;-40
2023/04/13 03:11:22;;;;;;;0.20;0.20;;;;;;;24.83;35.49;98541.72;1893762;74;28205;-39
2023/04/13 03:14:20;;;;;;;0.10;0.10;;;;;;;24.86;35.35;98548.55;1880234;74;28080;-40
2023/04/13 03:17:03;;;;;;;0.10;0.10;;;;;;;24.84;35.54;98553.50;1896384;74;28226;-40
2023/04/13 03:19:54;;;;;;;0.20;0.20;;;;;;;24.85;35.55;98549.67;1895392;74;27923;-40
2023/04/13 03:22:44;;;;;;;0.30;0.30;;;;;;;24.84;35.40;98542.52;1870915;75;28220;-40
2023/04/13 03:25:33;;;;;;;0.35;0.35;;;;;;;24.82;35.55;98552.41;1887233;74;28281;-39
2023/04/13 03:28:23;;;;;;;0.13;0.13;;;;;;;24.80;35.54;98551.03;1868634;75;28177;-39
2023/04/13 03:31:13;;;;;;;0.20;0.20;;;;;;;24.81;35.51;98551.32;1894976;74;28095;-40
2023/04/13 03:34:02;;;;;;;0.30;0.30;;;;;;;24.82;35.50;98548.83;1871707;75;28064;-40
2023/04/13 03:36:51;;;;;;;0.20;0.20;;;;;;;24.80;35.51;98551.03;1876301;75;28619;-39
2023/04/13 03:39:41;;;;;;;0.20;0.20;;;;;;;24.79;35.48;98554.31;1867135;75;28133;-40
2023/04/13 03:42:31;;;;;;;0.20;0.20;;;;;;;24.79;35.51;98552.95;1871608;75;28049;-39
2023/04/13 03:45:20;;;;;;;0.20;0.20;;;;;;;24.79;35.51;98561.73;1898193;75;28096;-39
2023/04/13 03:48:09;;;;;;;1.00;0.30;;;;;;;24.79;35.51;98552.11;1879530;74;28086;-40
2023/04/13 03:50:58;;;;;;;0.50;0.20;;;;;;;24.79;35.49;98552.11;1894052;75;28115;-40
2023/04/13 03:53:49;;;;;;;0.23;0.23;;;;;;;24.79;35.51;98546.63;1897675;75;28165;-40
2023/04/13 03:56:39;;;;;;;0.20;0.20;;;;;;;24.78;35.47;98543.61;1886389;74;33101;-40
2023/04/13 03:59:29;;;;;;;0.13;0.13;;;;;;;24.77;35.48;98546.91;1907319;74;28097;-40
2023/04/13 04:02:18;;;;;;;0.20;0.20;;;;;;;24.71;35.48;98530.92;1860745;75;28053;-39
2023/04/13 04:05:08;;;;;;;0.15;0.10;;;;;;;24.77;35.53;98545.53;1880994;75;29243;-39
2023/04/13 04:07:57;;;;;;;0.20;0.20;;;;;;;24.76;35.51;98555.39;1890848;74;28052;-39
2023/04/13 04:10:47;;;;;;;0.20;0.20;;;;;;;24.76;35.51;98554.02;1903348;74;28093;-40
2023/04/13 04:13:37;;;;;;;0.17;0.17;;;;;;;24.78;35.45;98554.59;1854744;75;28156;-40
2023/04/13 04:16:26;;;;;;;0.53;0.30;;;;;;;24.75;35.44;98547.69;1877669;75;28127;-40
2023/04/13 04:19:16;;;;;;;0.10;0.10;;;;;;;24.72;35.47;98549.06;1876342;75;28141;-39
2023/04/13 04:22:06;;;;;;;0.40;0.20;;;;;;;24.74;35.44;98553.73;1901808;74;28099;-40
2023/04/13 04:25:02;;;;;;;0.23;0.23;;;;;;;24.75;35.39;98549.06;1875947;75;28167;-40
2023/04/13 04:27:48;;;;;;;0.30;0.10;;;;;;;24.72;35.42;98549.06;1850734;76;28159;-39
2023/04/13 04:30:37;;;;;;;0.20;0.20;;;;;;;24.71;35.42;98551.52;1857676;76;28310;-39
2023/04/13 04:33:27;;;;;;;0.10;0.10;;;;;;;24.74;35.39;98557.02;1884004;75;28109;-39
2023/04/13 04:36:17;;;;;;;0.10;0.10;;;;;;;24.74;35.39;98550.98;1858787;75;28125;-39
2023/04/13 04:39:09;;;;;;;0.30;0.30;;;;;;;24.73;35.34;98543.86;1874139;76;28069;-39
2023/04/13 04:42:06;;;;;;;0.20;0.20;;;;;;;24.73;35.41;98537.53;1872637;76;28165;-41
2023/04/13 04:44:55;;;;;;;0.10;0.10;;;;;;;24.73;35.35;98542.48;1888024;75;28069;-39
2023/04/13 04:47:44;;;;;;;0.10;0.10;;;;;;;24.72;35.37;98540.82;1873657;76;28142;-40
2023/04/13 04:50:37;;;;;;;0.15;0.15;;;;;;;24.71;35.38;98546.02;1874889;76;28143;-40
2023/04/13 04:53:29;;;;;;;0.20;0.10;;;;;;;24.73;35.38;98546.61;1856152;76;28263;-39
2023/04/13 04:56:18;;;;;;;0.10;0.10;;;;;;;24.69;35.41;98559.20;1857170;76;28110;-40
2023/04/13 04:59:09;;;;;;;0.50;0.40;;;;;;;24.71;35.33;98569.37;1870333;76;28051;-40
2023/04/13 05:02:02;;;;;;;0.10;0.10;;;;;;;24.71;35.38;98587.22;1873533;76;28060;-40
2023/04/13 05:04:52;;;;;;;0.10;0.10;;;;;;;24.72;35.28;98594.38;1864039;76;28249;-41
2023/04/13 05:07:43;;;;;;;0.28;0.28;;;;;;;24.69;35.34;98586.66;1876037;76;28185;-41
2023/04/13 05:10:32;;;;;;;0.20;0.20;;;;;;;24.71;35.26;98583.67;1887542;75;28135;-39
2023/04/13 05:13:21;;;;;;;0.10;0.10;;;;;;;24.70;35.15;98580.09;1872507;75;28107;-42
2023/04/13 05:16:11;;;;;;;0.30;0.30;;;;;;;24.72;35.11;98579.27;1872805;76;28136;-41
2023/04/13 05:19:00;;;;;;;0.17;0.17;;;;;;;24.74;34.40;98578.45;1886659;75;28130;-41
2023/04/13 05:22:06;;;;;;;0.15;0.15;;;;;;;24.68;32.43;98575.42;1875250;75;28068;-40
2023/04/13 05:24:56;;;;;;;0.40;0.10;;;;;;;24.53;31.29;98580.02;1890368;74;28122;-40
2023/04/13 05:27:45;;;;;;;0.65;0.20;;;;;;;24.53;31.07;98578.10;1872989;75;28104;-39
2023/04/13 05:30:34;;;;;;;0.20;0.20;;;;;;;24.52;31.36;98574.27;1880361;75;28114;-40
2023/04/13 05:33:25;;;;;;;0.20;0.20;;;;;;;24.49;31.59;98575.63;1894530;75;28213;-40
2023/04/13 05:36:15;;;;;;;0.20;0.20;;;;;;;24.50;32.17;98577.83;1860683;76;28230;-40
2023/04/13 05:39:05;;;;;;;0.50;0.30;;;;;;;24.48;32.56;98584.95;1883121;75;28055;-39
2023/04/13 05:41:55;;;;;;;0.42;0.33;;;;;;;24.52;32.67;98581.96;1865829;75;28197;-41
2023/04/13 05:44:43;;;;;;;0.13;0.13;;;;;;;24.54;32.98;98594.88;1882743;75;28045;-41
2023/04/13 05:47:33;;;;;;;0.20;0.20;;;;;;;24.53;32.94;98598.70;1867040;76;28292;-41
2023/04/13 05:50:22;;;;;;;0.10;0.10;;;;;;;24.53;33.00;98586.88;1882803;75;28087;-41
2023/04/13 05:53:11;;;;;;;0.23;0.23;;;;;;;24.53;33.24;98598.70;1870207;75;29613;-41
2023/04/13 05:56:04;;;;;;;0.10;0.10;;;;;;;24.53;33.13;98603.36;1878654;75;28126;-39
2023/04/13 05:58:54;;;;;;;0.10;0.10;;;;;;;24.49;33.16;98604.45;1910788;74;28092;-39
2023/04/13 06:01:48;;;;;;;0.10;0.10;;;;;;;24.51;33.25;98605.01;1876579;75;28048;-40
2023/04/13 06:04:37;;;;;;;0.10;0.10;;;;;;;24.51;33.30;98605.01;1887127;75;28522;-40
2023/04/13 06:07:26;;;;;;;0.25;0.25;;;;;;;24.52;33.44;98604.47;1882825;75;28099;-39
2023/04/13 06:10:16;;;;;;;0.30;0.30;;;;;;;24.52;33.46;98617.66;1832296;77;28396;-42
2023/04/13 06:13:04;;;;;;;0.08;0.08;;;;;;;24.50;33.55;98619.02;1891882;75;28117;-39
2023/04/13 06:15:53;;;;;;;0.30;0.30;;;;;;;24.49;33.59;98619.55;1882238;75;28157;-39
2023/04/13 06:18:42;;;;;;;0.20;0.20;;;;;;;24.48;33.67;98615.14;1891218;75;28114;-39
2023/04/13 06:21:31;;;;;;;1.00;0.23;;;;;;;24.55;33.67;98624.53;1888294;74;28235;-39
2023/04/13 06:24:19;;;;;;;0.20;0.20;;;;;;;24.52;33.89;98619.03;1900507;74;28157;-39
2023/04/13 06:27:08;;;;;;;0.68;0.13;;;;;;;24.55;34.32;98621.22;1916519;74;28067;-39
2023/04/13 06:29:57;;;;;;;0.20;0.20;;;;;;;24.55;34.54;98623.96;1861080;76;28296;-40
2023/04/13 06:32:46;;;;;;;1.17;0.20;;;;;;;24.59;34.64;98621.52;1879801;75;28052;-39
2023/04/13 06:35:36;;;;;;;0.10;0.10;;;;;;;24.57;34.82;98613.56;1865121;75;28149;-39
2023/04/13 06:38:26;;;;;;;0.33;0.10;;;;;;;24.56;34.97;98611.89;1857948;76;28191;-40
2023/04/13 06:41:16;;;;;;;0.30;0.20;;;;;;;24.56;35.10;98609.15;1874833;75;28233;-40
2023/04/13 06:44:05;;;;;;;0.70;0.10;;;;;;;24.57;35.18;98606.70;1875279;75;28130;-40
2023/04/13 06:46:56;;;;;;;0.40;0.20;;;;;;;24.56;35.19;98602.83;1872340;75;28636;-41
2023/04/13 06:49:46;;;;;;;0.25;0.25;;;;;;;24.54;35.42;98598.98;1874667;75;28079;-41
2023/04/13 06:52:34;;;;;;;0.53;0.13;;;;;;;24.56;35.40;98593.22;1882911;75;28057;-41
2023/04/13 06:55:24;;;;;;;0.10;0.10;;;;;;;24.53;35.45;98595.95;1848809;76;28246;-39
2023/04/13 06:58:13;;;;;;;0.60;0.23;;;;;;;24.54;35.45;98590.75;1877256;75;28290;-39
2023/04/13 07:01:03;;;;;;;0.20;0.20;;;;;;;24.53;35.49;98589.09;1865597;75;28169;-40
2023/04/13 07:03:52;;;;;;;0.17;0.17;;;;;;;24.53;35.47;98591.83;1875926;75;28173;-40
2023/04/13 07:06:41;;;;;;;1.80;0.30;;;;;;;24.55;35.49;98593.76;1839467;77;29236;-40
2023/04/13 07:09:29;;;;;;;0.20;0.20;;;;;;;24.54;35.48;98588.00;1867497;75;28229;-39
2023/04/13 07:12:18;;;;;;;0.28;0.28;;;;;;;24.53;35.45;98576.73;1885600;75;32078;-39
2023/04/13 07:15:09;;;;;;;0.10;0.10;;;;;;;24.53;35.50;98572.61;1888709;75;28319;-40
2023/04/13 07:17:57;;;;;;;0.17;0.10;;;;;;;24.53;35.49;98575.36;1886081;75;28069;-40
2023/04/13 07:20:47;;;;;;;0.20;0.20;;;;;;;24.54;35.49;98570.16;1889872;75;28148;-40
2023/04/13 07:23:37;;;;;;;0.60;0.13;;;;;;;24.52;35.47;98572.36;1880839;75;28196;-40
2023/04/13 07:26:26;;;;;;;0.10;0.10;;;;;;;24.54;35.46;98570.16;1843990;77;38580;-40
2023/04/13 07:29:16;;;;;;;0.60;0.30;;;;;;;24.52;35.47;98561.37;1834631;77;28216;-39
2023/04/13 07:32:07;;;;;;;0.20;0.20;;;;;;;24.52;35.47;98568.23;1831345;77;28188;-40
2023/04/13 07:35:00;;;;;;;0.20;0.17;;;;;;;24.52;35.46;98565.48;1870259;76;28004;-40
2023/04/13 07:37:50;;;;;;;0.10;0.10;;;;;;;24.53;35.47;98564.91;1873496;76;28013;-40
2023/04/13 07:40:38;;;;;;;0.20;0.20;;;;;;;24.51;35.47;98562.45;1874060;76;28125;-41
2023/04/13 07:43:28;;;;;;;0.30;0.30;;;;;;;24.50;35.47;98558.61;1873977;76;28110;-40
2023/04/13 07:46:19;;;;;;;0.20;0.20;;;;;;;24.53;35.45;98561.63;1874052;76;28062;-40
2023/04/13 07:49:10;;;;;;;0.20;0.20;;;;;;;24.54;35.42;98563.30;1873080;76;28095;-39
2023/04/13 07:52:00;;;;;;;1.00;0.30;;;;;;;24.53;35.42;98562.17;1873879;76;28041;-39
2023/04/13 07:54:50;;;;;;;0.40;0.40;;;;;;;24.51;35.44;98558.33;1872854;76;28118;-40
2023/04/13 07:57:39;;;;;;;0.20;0.20;;;;;;;24.52;35.43;98558.63;1868390;76;28057;-40
2023/04/13 08:00:29;;;;;;;0.30;0.20;;;;;;;24.52;35.41;98562.74;1845179;76;28141;-40
2023/04/13 08:03:18;;;;;;;0.10;0.10;;;;;;;24.54;35.39;98556.43;1858626;76;28148;-39
2023/04/13 08:06:09;;;;;;;0.20;0.10;;;;;;;24.55;35.39;98560.01;1854665;76;28100;-40
2023/04/13 08:08:57;;;;;;;0.10;0.10;;;;;;;24.55;35.36;98557.27;1852735;76;28078;-40
2023/04/13 08:11:45;;;;;;;0.10;0.10;;;;;;;24.55;35.36;98551.20;1866926;76;28087;-39
2023/04/13 08:14:36;;;;;;;0.15;0.15;;;;;;;24.55;35.34;98551.20;1858865;76;28259;-39
2023/04/13 08:17:25;;;;;;;0.10;0.10;;;;;;;24.55;35.32;98547.08;1849239;76;28106;-39
2023/04/13 08:20:14;;;;;;;0.20;0.20;;;;;;;24.55;35.34;98551.20;1869618;76;28114;-39
2023/04/13 08:23:03;;;;;;;0.10;0.10;;;;;;;24.57;35.31;98551.78;1840681;77;28201;-39
2023/04/13 08:25:53;;;;;;;0.13;0.13;;;;;;;24.55;35.34;98549.03;1858302;76;28219;-39
2023/04/13 08:28:42;;;;;;;0.20;0.20;;;;;;;24.55;35.34;98555.31;1860305;75;28658;-39
2023/04/13 08:31:31;;;;;;;0.10;0.10;;;;;;;24.56;35.30;98550.66;1877740;75;28099;-39
2023/04/13 08:34:21;;;;;;;0.20;0.20;;;;;;;24.53;35.40;98539.66;1875495;75;28131;-39
2023/04/13 08:37:11;;;;;;;0.10;0.10;;;;;;;24.53;35.34;98536.09;1876758;75;28099;-40
2023/04/13 08:40:00;;;;;;;0.10;0.10;;;;;;;24.54;35.33;98539.95;1888746;74;28110;-39
2023/04/13 08:42:52;;;;;;;0.70;0.30;;;;;;;24.54;35.29;98542.70;1909052;74;28220;-40
2023/04/13 08:45:44;;;;;;;0.15;0.15;;;;;;;24.54;35.31;98550.94;1910893;74;28071;-40
2023/04/13 08:48:34;;;;;;;0.10;0.10;;;;;;;24.55;35.29;98537.47;1826861;77;28343;-39
2023/04/13 08:51:27;;;;;;;0.17;0.17;;;;;;;24.53;35.29;98538.29;1864889;76;28130;-40
2023/04/13 08:54:16;;;;;;;0.20;0.20;;;;;;;24.56;35.22;98540.51;1889014;74;28189;-40
2023/04/13 08:57:06;;;;;;;0.30;0.30;;;;;;;24.57;35.20;98539.42;1910411;74;28328;-40
2023/04/13 08:59:57;;;;;;;0.30;0.30;;;;;;;24.56;35.19;98539.67;1836589;77;28215;-39
2023/04/13 09:02:49;;;;;;;0.20;0.20;;;;;;;24.55;35.17;98547.08;1877003;75;28169;-39
2023/04/13 09:05:40;;;;;;;0.10;0.10;;;;;;;24.57;35.14;98538.59;1910399;74;28188;-39
2023/04/13 09:08:35;;;;;;;0.70;0.30;;;;;;;24.57;35.12;98542.17;1901450;74;28077;-39
2023/04/13 09:11:20;;;;;;;0.30;0.20;;;;;;;24.55;35.10;98537.47;1897674;74;27713;-39
2023/04/13 09:14:09;;;;;;;0.15;0.15;;;;;;;24.56;35.08;98530.06;1891822;74;28140;-39
2023/04/13 09:16:58;;;;;;;0.20;0.10;;;;;;;24.55;35.08;98530.61;1892134;74;28156;-39
2023/04/13 09:19:48;;;;;;;0.80;0.23;;;;;;;24.53;35.07;98535.55;1893186;74;27693;-39
2023/04/13 09:22:36;;;;;;;0.10;0.10;;;;;;;24.52;35.09;98528.42;1896892;74;28119;-41
2023/04/13 09:25:27;;;;;;;0.20;0.20;;;;;;;24.53;35.07;98531.97;1888016;74;28059;-41
2023/04/13 09:28:20;;;;;;;0.20;0.20;;;;;;;24.53;35.05;98529.22;1892455;74;28199;-40
2023/04/13 09:31:09;;;;;;;0.25;0.25;;;;;;;24.46;35.04;98523.16;1893537;74;33086;-40
2023/04/13 09:33:57;;;;;;;0.10;0.10;;;;;;;24.53;35.06;98534.72;1876557;76;38485;-39
2023/04/13 09:36:46;;;;;;;0.10;0.10;;;;;;;24.52;35.03;98522.94;1875984;74;28379;-39
2023/04/13 09:39:34;;;;;;;0.20;0.20;;;;;;;24.52;35.03;98533.08;1902330;74;28060;-40
2023/04/13 09:42:22;;;;;;;1.60;0.10;;;;;;;24.50;35.04;98523.75;1842937;77;38705;-39
2023/04/13 09:45:11;;;;;;;1.00;0.23;;;;;;;24.49;35.01;98516.60;1896950;74;28112;-39
2023/04/13 09:48:01;;;;;;;0.20;0.20;;;;;;;24.50;35.03;98514.14;1878745;74;28197;-39
2023/04/13 09:51:05;;;;;;;0.28;0.28;;;;;;;24.52;35.00;98513.86;1836406;77;28209;-39
2023/04/13 09:53:54;;;;;;;0.10;0.10;;;;;;;24.49;34.99;98523.46;1871788;75;28097;-40
2023/04/13 09:56:45;;;;;;;0.17;0.17;;;;;;;24.48;34.91;98527.29;1895218;74;28177;-40
2023/04/13 09:59:35;;;;;;;0.20;0.20;;;;;;;24.48;34.93;98530.61;1887663;74;28125;-40
2023/04/13 10:02:25;;;;;;;0.10;0.10;;;;;;;24.47;34.91;98537.19;1915003;74;28127;-40
2023/04/13 10:05:14;;;;;;;0.20;0.20;;;;;;;24.47;34.87;98550.37;1888718;74;28202;-40
2023/04/13 10:08:03;;;;;;;0.20;0.20;;;;;;;24.47;34.87;98539.92;1897966;74;28201;-39
2023/04/13 10:10:51;;;;;;;0.78;0.28;;;;;;;24.48;34.80;98553.95;1893706;74;37338;-39
2023/04/13 10:13:52;;;;;;;0.30;0.30;;;;;;;24.46;34.80;98561.06;1865997;75;28065;-39
2023/04/13 10:16:43;;;;;;;0.30;0.30;;;;;;;24.46;34.83;98558.85;1914515;74;28075;-39
2023/04/13 10:19:42;;;;;;;0.20;0.20;;;;;;;24.45;34.83;98568.20;1858142;75;28223;-39
2023/04/13 10:22:31;;;;;;;0.23;0.20;;;;;;;24.43;34.81;98557.50;1874699;76;28134;-39
2023/04/13 10:25:20;;;;;;;0.30;0.30;;;;;;;24.43;34.85;98547.06;1892442;74;28067;-39
2023/04/13 10:28:09;;;;;;;0.17;0.17;;;;;;;24.44;34.84;98551.44;1892906;74;28284;-39
2023/04/13 10:30:57;;;;;;;0.20;0.20;;;;;;;24.44;34.80;98546.78;1914890;74;28128;-39
2023/04/13 10:33:51;;;;;;;0.50;0.20;;;;;;;24.45;34.78;98551.19;1914538;74;28191;-40
2023/04/13 10:36:45;;;;;;;0.50;0.30;;;;;;;24.43;34.77;98548.43;1886197;74;28091;-39
2023/04/13 10:39:36;;;;;;;0.20;0.20;;;;;;;24.43;34.79;98549.80;1884290;74;28159;-40
2023/04/13 10:42:24;;;;;;;0.47;0.30;;;;;;;24.42;34.80;98548.14;1887839;74;28173;-39
2023/04/13 10:45:22;;;;;;;0.15;0.15;;;;;;;24.40;34.79;98548.42;1878290;76;28274;-39
2023/04/13 10:48:14;;;;;;;0.10;0.10;;;;;;;24.44;34.75;98539.91;1888991;74;28052;-40
2023/04/13 10:51:03;;;;;;;0.25;0.25;;;;;;;24.42;34.73;98545.39;1886166;74;28153;-39
2023/04/13 10:53:52;;;;;;;0.60;0.20;;;;;;;24.42;34.74;98544.86;1886869;74;28146;-39
2023/04/13 10:56:40;;;;;;;0.10;0.10;;;;;;;24.44;34.76;98551.44;1891573;74;28067;-39
2023/04/13 10:59:55;;;;;;;1.80;0.20;;;;;;;24.42;34.74;98547.59;1884450;74;28126;-40
2023/04/13 11:02:39;;;;;;;0.17;0.17;;;;;;;24.43;34.73;98549.80;1900703;74;28158;-40
2023/04/13 11:05:28;;;;;;;0.10;0.10;;;;;;;24.42;34.74;98545.39;1898920;74;28055;-40
2023/04/13 11:08:20;;;;;;;0.20;0.20;;;;;;;24.44;34.74;98538.55;1896313;74;31056;-40
2023/04/13 11:11:08;;;;;;;0.20;0.20;;;;;;;24.43;34.72;98536.91;1894975;74;28184;-39
2023/04/13 11:13:56;;;;;;;0.20;0.20;;;;;;;24.42;34.70;98533.05;1898824;74;28188;-40
2023/04/13 11:16:45;;;;;;;0.25;0.20;;;;;;;24.43;34.71;98536.91;1899286;74;28080;-40
2023/04/13 11:19:37;;;;;;;0.60;0.30;;;;;;;24.43;34.71;98532.80;1896696;74;28177;-39
2023/04/13 11:22:27;;;;;;;1.40;0.40;;;;;;;24.43;34.70;98527.30;1893049;74;28103;-39
2023/04/13 11:25:15;;;;;;;0.25;0.25;;;;;;;24.44;34.69;98529.47;1904608;74;28189;-40
2023/04/13 11:28:04;;;;;;;0.20;0.20;;;;;;;24.44;34.69;98531.68;1899255;74;28180;-39
2023/04/13 11:31:00;;;;;;;0.20;0.20;;;;;;;24.45;34.66;98524.28;1894409;74;28145;-40
2023/04/13 11:33:47;;;;;;;0.50;0.30;;;;;;;24.45;34.69;98522.36;1884368;74;31102;-39
2023/04/13 11:36:38;;;;;;;0.30;0.30;;;;;;;24.45;34.66;98522.36;1877258;74;28242;-41
2023/04/13 11:39:27;;;;;;;0.20;0.20;;;;;;;24.43;34.66;98512.20;1875491;75;28147;-40
2023/04/13 11:42:16;;;;;;;0.30;0.30;;;;;;;24.44;34.63;98517.13;1879055;75;28117;-39
2023/04/13 11:45:06;;;;;;;0.20;0.20;;;;;;;24.45;34.63;98518.25;1881353;75;28130;-41
2023/04/13 11:47:57;;;;;;;0.08;0.08;;;;;;;24.45;34.62;98511.92;1875080;75;28090;-40
2023/04/13 11:50:45;;;;;;;0.70;0.20;;;;;;;24.45;34.64;98507.80;1877071;75;28149;-39
2023/04/13 11:53:36;;;;;;;0.10;0.10;;;;;;;24.46;34.63;98502.03;1882596;75;28170;-39
2023/04/13 11:56:25;;;;;;;0.30;0.30;;;;;;;24.46;34.62;98490.22;1858998;76;28179;-39
2023/04/13 11:59:13;;;;;;;0.30;0.30;;;;;;;24.44;34.60;98487.75;1847733;75;28094;-39
2023/04/13 12:02:04;;;;;;;0.30;0.30;;;;;;;24.43;34.64;98484.75;1901670;74;35115;-40
2023/04/13 12:04:53;;;;;;;0.20;0.20;;;;;;;24.41;34.62;98478.68;1852138;76;28178;-40
2023/04/13 12:07:41;;;;;;;0.23;0.23;;;;;;;24.41;34.61;98475.94;1862045;75;28130;-41
2023/04/13 12:10:34;;;;;;;0.23;0.17;;;;;;;24.42;34.61;98482.26;1848747;75;28256;-39
2023/04/13 12:13:22;;;;;;;0.20;0.20;;;;;;;24.42;34.60;98479.52;1876586;75;28156;-40
2023/04/13 12:16:14;;;;;;;0.30;0.30;;;;;;;24.41;34.63;98473.77;1883521;75;28158;-40
2023/04/13 12:19:07;;;;;;;0.20;0.20;;;;;;;24.41;34.61;98477.31;1882730;75;28065;-40
2023/04/13 12:21:55;;;;;;;0.20;0.20;;;;;;;24.43;34.59;98474.31;1847192;75;28207;-40
2023/04/13 12:24:43;;;;;;;0.10;0.10;;;;;;;24.43;34.59;98478.43;1882734;75;28057;-39
2023/04/13 12:27:35;;;;;;;0.20;0.20;;;;;;;24.44;34.58;98482.81;1860247;75;28264;-40
2023/04/13 12:30:26;;;;;;;0.10;0.10;;;;;;;24.43;34.55;98481.17;1901428;75;28065;-39
2023/04/13 12:33:15;;;;;;;0.17;0.17;;;;;;;24.42;34.55;98465.25;1859199;75;28196;-39
2023/04/13 12:36:10;;;;;;;0.30;0.30;;;;;;;24.42;34.56;98464.41;1857535;75;28114;-38
2023/04/13 12:38:53;;;;;;;0.30;0.30;;;;;;;24.41;34.56;98464.95;1864895;75;28067;-39
2023/04/13 12:41:41;;;;;;;0.30;0.30;;;;;;;24.43;34.57;98462.79;1861815;76;28075;-39
2023/04/13 12:44:30;;;;;;;0.20;0.20;;;;;;;24.44;34.52;98456.19;1833344;77;28302;-39
2023/04/13 12:47:18;;;;;;;0.25;0.25;;;;;;;24.36;34.54;98447.13;1858914;76;28130;-40
2023/04/13 12:50:08;;;;;;;0.10;0.10;;;;;;;24.43;34.52;98453.19;1868580;75;28185;-39
2023/04/13 12:52:57;;;;;;;0.20;0.20;;;;;;;24.43;34.52;98446.32;1857016;75;28088;-39
2023/04/13 12:55:45;;;;;;;0.25;0.25;;;;;;;24.44;34.51;98443.00;1870958;76;28088;-39
2023/04/13 12:58:34;;;;;;;0.20;0.20;;;;;;;24.45;34.50;98430.94;1829882;76;28223;-39
2023/04/13 13:01:22;;;;;;;0.23;0.23;;;;;;;24.44;34.49;98421.88;1869762;75;28053;-40
2023/04/13 13:04:10;;;;;;;0.20;0.20;;;;;;;24.43;34.51;98411.17;1865295;76;28184;-39
2023/04/13 13:06:59;;;;;;;0.10;0.10;;;;;;;24.42;34.54;98408.97;1860545;76;28118;-40
2023/04/13 13:09:47;;;;;;;0.33;0.33;;;;;;;24.43;34.51;98391.96;1829154;78;28219;-40
2023/04/13 13:12:36;;;;;;;0.40;0.40;;;;;;;24.41;34.51;98394.16;1855828;76;28170;-39
2023/04/13 13:15:25;;;;;;;0.20;0.20;;;;;;;24.42;34.54;98408.97;1844400;76;28238;-39
2023/04/13 13:18:13;;;;;;;0.20;0.20;;;;;;;24.39;34.52;98417.74;1855750;76;28281;-39
2023/04/13 13:21:02;;;;;;;0.23;0.15;;;;;;;24.39;34.55;98438.33;1885573;75;28083;-40